sensor_id;sensor_type;location;lat;lon;timestamp;P1;durP1;ratioP1;P2;durP2;ratioP2
72087;SDS011;59961;50.232;8.616;2023-04-10T00:01:26;8.43;;;4.63;;
72087;SDS011;59961;50.232;8.616;2023-04-10T00:03:51;9.00;;;4.10;;
72087;SDS011;59961;50.232;8.616;2023-04-10T00:06:16;11.33;;;4.90;;
72087;SDS011;59961;50.232;8.616;2023-04-10T00:08:42;9.50;;;4.13;;
72087;SDS011;59961;50.232;8.616;2023-04-10T00:11:07;8.95;;;4.10;;
72087;SDS011;59961;50.232;8.616;2023-04-10T00:13:32;9.45;;;4.78;;
72087;SDS011;59961;50.232;8.616;2023-04-10T00:15:57;7.90;;;3.93;;
72087;SDS011;59961;50.232;8.616;2023-04-10T00:18:22;8.95;;;4.03;;
72087;SDS011;59961;50.232;8.616;2023-04-10T00:20:47;9.13;;;3.70;;
72087;SDS011;59961;50.232;8.616;2023-04-10T00:23:12;8.07;;;4.10;;
72087;SDS011;59961;50.232;8.616;2023-04-10T00:25:38;9.07;;;4.60;;
72087;SDS011;59961;50.232;8.616;2023-04-10T00:28:03;9.90;;;5.00;;
72087;SDS011;59961;50.232;8.616;2023-04-10T00:30:28;11.03;;;4.33;;
72087;SDS011;59961;50.232;8.616;2023-04-10T00:32:53;9.63;;;4.50;;
72087;SDS011;59961;50.232;8.616;2023-04-10T00:35:18;8.13;;;3.90;;
72087;SDS011;59961;50.232;8.616;2023-04-10T00:37:44;9.80;;;4.80;;
72087;SDS011;59961;50.232;8.616;2023-04-10T00:40:09;8.70;;;4.10;;
72087;SDS011;59961;50.232;8.616;2023-04-10T00:42:34;7.90;;;3.90;;
72087;SDS011;59961;50.232;8.616;2023-04-10T00:45:00;9.63;;;4.70;;
72087;SDS011;59961;50.232;8.616;2023-04-10T00:47:25;9.60;;;4.60;;
72087;SDS011;59961;50.232;8.616;2023-04-10T00:49:51;9.60;;;4.67;;
72087;SDS011;59961;50.232;8.616;2023-04-10T00:52:16;9.57;;;4.63;;
72087;SDS011;59961;50.232;8.616;2023-04-10T00:54:41;9.57;;;4.23;;
72087;SDS011;59961;50.232;8.616;2023-04-10T00:57:06;9.77;;;4.37;;
72087;SDS011;59961;50.232;8.616;2023-04-10T00:59:32;11.03;;;4.40;;
72087;SDS011;59961;50.232;8.616;2023-04-10T01:01:57;8.30;;;3.67;;
72087;SDS011;59961;50.232;8.616;2023-04-10T01:04:22;8.70;;;4.17;;
72087;SDS011;59961;50.232;8.616;2023-04-10T01:06:52;10.90;;;4.75;;
72087;SDS011;59961;50.232;8.616;2023-04-10T01:09:25;9.90;;;4.50;;
72087;SDS011;59961;50.232;8.616;2023-04-10T01:11:54;9.33;;;4.57;;
72087;SDS011;59961;50.232;8.616;2023-04-10T01:14:29;10.05;;;4.72;;
72087;SDS011;59961;50.232;8.616;2023-04-10T01:16:57;10.68;;;4.45;;
72087;SDS011;59961;50.232;8.616;2023-04-10T01:21:51;8.83;;;4.20;;
72087;SDS011;59961;50.232;8.616;2023-04-10T01:29:54;10.73;;;4.88;;
72087;SDS011;59961;50.232;8.616;2023-04-10T01:32:20;10.73;;;4.57;;
72087;SDS011;59961;50.232;8.616;2023-04-10T01:34:47;10.83;;;5.10;;
72087;SDS011;59961;50.232;8.616;2023-04-10T01:37:20;12.07;;;4.53;;
72087;SDS011;59961;50.232;8.616;2023-04-10T01:39:46;11.38;;;4.78;;
72087;SDS011;59961;50.232;8.616;2023-04-10T01:42:12;9.50;;;4.97;;
72087;SDS011;59961;50.232;8.616;2023-04-10T01:44:40;12.70;;;4.43;;
72087;SDS011;59961;50.232;8.616;2023-04-10T01:47:05;9.80;;;4.22;;
72087;SDS011;59961;50.232;8.616;2023-04-10T01:49:31;10.43;;;4.67;;
72087;SDS011;59961;50.232;8.616;2023-04-10T01:51:56;9.77;;;4.20;;
72087;SDS011;59961;50.232;8.616;2023-04-10T01:54:27;11.70;;;4.68;;
72087;SDS011;59961;50.232;8.616;2023-04-10T01:56:53;9.13;;;4.72;;
72087;SDS011;59961;50.232;8.616;2023-04-10T01:59:18;8.47;;;4.03;;
72087;SDS011;59961;50.232;8.616;2023-04-10T02:01:44;9.10;;;3.92;;
72087;SDS011;59961;50.232;8.616;2023-04-10T02:04:09;9.90;;;4.50;;
72087;SDS011;59961;50.232;8.616;2023-04-10T02:09:04;11.43;;;4.73;;
72087;SDS011;59961;50.232;8.616;2023-04-10T02:11:40;9.50;;;4.68;;
72087;SDS011;59961;50.232;8.616;2023-04-10T02:14:09;10.35;;;4.88;;
72087;SDS011;59961;50.232;8.616;2023-04-10T02:16:35;9.00;;;4.32;;
72087;SDS011;59961;50.232;8.616;2023-04-10T02:19:01;9.60;;;4.45;;
72087;SDS011;59961;50.232;8.616;2023-04-10T02:21:27;10.80;;;4.83;;
72087;SDS011;59961;50.232;8.616;2023-04-10T02:23:53;11.55;;;4.88;;
72087;SDS011;59961;50.232;8.616;2023-04-10T02:26:18;10.37;;;4.80;;
72087;SDS011;59961;50.232;8.616;2023-04-10T02:28:43;11.45;;;5.35;;
72087;SDS011;59961;50.232;8.616;2023-04-10T02:31:08;9.83;;;4.47;;
72087;SDS011;59961;50.232;8.616;2023-04-10T02:33:34;10.30;;;4.53;;
72087;SDS011;59961;50.232;8.616;2023-04-10T02:36:00;9.77;;;4.33;;
72087;SDS011;59961;50.232;8.616;2023-04-10T02:38:26;10.50;;;4.63;;
72087;SDS011;59961;50.232;8.616;2023-04-10T02:40:51;9.88;;;4.93;;
72087;SDS011;59961;50.232;8.616;2023-04-10T02:43:16;10.50;;;4.65;;
72087;SDS011;59961;50.232;8.616;2023-04-10T02:45:41;9.67;;;4.47;;
72087;SDS011;59961;50.232;8.616;2023-04-10T02:48:07;8.57;;;3.80;;
72087;SDS011;59961;50.232;8.616;2023-04-10T02:50:32;9.70;;;4.20;;
72087;SDS011;59961;50.232;8.616;2023-04-10T02:52:58;11.07;;;4.40;;
72087;SDS011;59961;50.232;8.616;2023-04-10T02:55:23;9.73;;;3.90;;
72087;SDS011;59961;50.232;8.616;2023-04-10T02:57:48;9.07;;;3.67;;
72087;SDS011;59961;50.232;8.616;2023-04-10T03:00:13;9.30;;;4.17;;
72087;SDS011;59961;50.232;8.616;2023-04-10T03:02:39;9.73;;;4.15;;
72087;SDS011;59961;50.232;8.616;2023-04-10T03:05:04;9.52;;;4.05;;
72087;SDS011;59961;50.232;8.616;2023-04-10T03:07:30;9.50;;;4.18;;
72087;SDS011;59961;50.232;8.616;2023-04-10T03:09:56;10.40;;;4.63;;
72087;SDS011;59961;50.232;8.616;2023-04-10T03:12:21;10.18;;;4.72;;
72087;SDS011;59961;50.232;8.616;2023-04-10T03:14:46;10.53;;;4.60;;
72087;SDS011;59961;50.232;8.616;2023-04-10T03:17:11;10.37;;;4.73;;
72087;SDS011;59961;50.232;8.616;2023-04-10T03:19:37;10.07;;;4.07;;
72087;SDS011;59961;50.232;8.616;2023-04-10T03:22:02;10.80;;;4.60;;
72087;SDS011;59961;50.232;8.616;2023-04-10T03:24:27;9.95;;;4.10;;
72087;SDS011;59961;50.232;8.616;2023-04-10T03:26:52;10.47;;;4.53;;
72087;SDS011;59961;50.232;8.616;2023-04-10T03:29:18;10.23;;;3.88;;
72087;SDS011;59961;50.232;8.616;2023-04-10T03:31:43;10.90;;;4.63;;
72087;SDS011;59961;50.232;8.616;2023-04-10T03:34:08;9.30;;;3.93;;
72087;SDS011;59961;50.232;8.616;2023-04-10T03:36:33;10.45;;;4.85;;
72087;SDS011;59961;50.232;8.616;2023-04-10T03:38:59;9.27;;;4.00;;
72087;SDS011;59961;50.232;8.616;2023-04-10T03:41:24;11.40;;;4.73;;
72087;SDS011;59961;50.232;8.616;2023-04-10T03:43:49;12.17;;;4.80;;
72087;SDS011;59961;50.232;8.616;2023-04-10T03:46:14;9.53;;;4.13;;
72087;SDS011;59961;50.232;8.616;2023-04-10T03:48:40;10.77;;;4.90;;
72087;SDS011;59961;50.232;8.616;2023-04-10T03:51:05;10.93;;;4.60;;
72087;SDS011;59961;50.232;8.616;2023-04-10T03:53:30;10.38;;;5.07;;
72087;SDS011;59961;50.232;8.616;2023-04-10T03:55:59;9.53;;;4.30;;
72087;SDS011;59961;50.232;8.616;2023-04-10T03:58:25;10.38;;;4.80;;
72087;SDS011;59961;50.232;8.616;2023-04-10T04:00:50;12.30;;;5.38;;
72087;SDS011;59961;50.232;8.616;2023-04-10T04:03:15;11.07;;;5.30;;
72087;SDS011;59961;50.232;8.616;2023-04-10T04:05:40;10.67;;;4.63;;
72087;SDS011;59961;50.232;8.616;2023-04-10T04:08:05;14.02;;;5.40;;
72087;SDS011;59961;50.232;8.616;2023-04-10T04:10:31;9.50;;;4.40;;
72087;SDS011;59961;50.232;8.616;2023-04-10T04:12:56;8.07;;;4.27;;
72087;SDS011;59961;50.232;8.616;2023-04-10T04:15:21;10.40;;;4.57;;
72087;SDS011;59961;50.232;8.616;2023-04-10T04:17:47;10.55;;;5.38;;
72087;SDS011;59961;50.232;8.616;2023-04-10T04:20:12;10.70;;;5.03;;
72087;SDS011;59961;50.232;8.616;2023-04-10T04:22:38;10.98;;;4.55;;
72087;SDS011;59961;50.232;8.616;2023-04-10T04:25:03;10.60;;;4.55;;
72087;SDS011;59961;50.232;8.616;2023-04-10T04:27:32;10.85;;;4.93;;
72087;SDS011;59961;50.232;8.616;2023-04-10T04:29:57;9.52;;;4.60;;
72087;SDS011;59961;50.232;8.616;2023-04-10T04:32:22;10.82;;;4.45;;
72087;SDS011;59961;50.232;8.616;2023-04-10T04:34:49;11.20;;;4.50;;
72087;SDS011;59961;50.232;8.616;2023-04-10T04:37:14;10.13;;;4.68;;
72087;SDS011;59961;50.232;8.616;2023-04-10T04:39:39;9.63;;;4.60;;
72087;SDS011;59961;50.232;8.616;2023-04-10T04:42:04;10.73;;;4.75;;
72087;SDS011;59961;50.232;8.616;2023-04-10T04:44:31;9.73;;;4.22;;
72087;SDS011;59961;50.232;8.616;2023-04-10T04:46:56;9.95;;;4.72;;
72087;SDS011;59961;50.232;8.616;2023-04-10T04:49:21;9.63;;;4.80;;
72087;SDS011;59961;50.232;8.616;2023-04-10T04:51:46;9.47;;;4.77;;
72087;SDS011;59961;50.232;8.616;2023-04-10T04:54:12;10.18;;;4.43;;
72087;SDS011;59961;50.232;8.616;2023-04-10T04:56:37;9.77;;;4.68;;
72087;SDS011;59961;50.232;8.616;2023-04-10T04:59:02;10.10;;;4.73;;
72087;SDS011;59961;50.232;8.616;2023-04-10T05:01:27;10.47;;;4.67;;
72087;SDS011;59961;50.232;8.616;2023-04-10T05:03:52;10.27;;;4.57;;
72087;SDS011;59961;50.232;8.616;2023-04-10T05:06:18;10.40;;;4.05;;
72087;SDS011;59961;50.232;8.616;2023-04-10T05:08:43;10.23;;;4.83;;
72087;SDS011;59961;50.232;8.616;2023-04-10T05:11:08;12.53;;;4.30;;
72087;SDS011;59961;50.232;8.616;2023-04-10T05:13:33;11.67;;;4.60;;
72087;SDS011;59961;50.232;8.616;2023-04-10T05:15:58;10.60;;;4.67;;
72087;SDS011;59961;50.232;8.616;2023-04-10T05:18:24;11.13;;;5.00;;
72087;SDS011;59961;50.232;8.616;2023-04-10T05:20:49;10.10;;;4.80;;
72087;SDS011;59961;50.232;8.616;2023-04-10T05:23:15;11.47;;;5.00;;
72087;SDS011;59961;50.232;8.616;2023-04-10T05:25:40;10.70;;;5.13;;
72087;SDS011;59961;50.232;8.616;2023-04-10T05:28:05;8.77;;;4.30;;
72087;SDS011;59961;50.232;8.616;2023-04-10T05:30:31;9.97;;;4.50;;
72087;SDS011;59961;50.232;8.616;2023-04-10T05:32:56;9.53;;;4.30;;
72087;SDS011;59961;50.232;8.616;2023-04-10T05:35:21;11.00;;;5.33;;
72087;SDS011;59961;50.232;8.616;2023-04-10T05:37:46;13.00;;;4.88;;
72087;SDS011;59961;50.232;8.616;2023-04-10T05:40:11;10.38;;;5.00;;
72087;SDS011;59961;50.232;8.616;2023-04-10T05:42:36;10.23;;;4.67;;
72087;SDS011;59961;50.232;8.616;2023-04-10T05:45:02;10.38;;;5.05;;
72087;SDS011;59961;50.232;8.616;2023-04-10T05:47:27;11.07;;;4.50;;
72087;SDS011;59961;50.232;8.616;2023-04-10T05:49:52;9.40;;;4.57;;
72087;SDS011;59961;50.232;8.616;2023-04-10T05:52:17;11.00;;;5.13;;
72087;SDS011;59961;50.232;8.616;2023-04-10T05:54:42;12.53;;;5.37;;
72087;SDS011;59961;50.232;8.616;2023-04-10T05:57:07;10.57;;;4.90;;
72087;SDS011;59961;50.232;8.616;2023-04-10T05:59:32;10.27;;;5.07;;
72087;SDS011;59961;50.232;8.616;2023-04-10T06:01:58;11.73;;;4.82;;
72087;SDS011;59961;50.232;8.616;2023-04-10T06:04:23;11.50;;;5.00;;
72087;SDS011;59961;50.232;8.616;2023-04-10T06:06:48;10.70;;;5.00;;
72087;SDS011;59961;50.232;8.616;2023-04-10T06:09:13;14.13;;;6.00;;
72087;SDS011;59961;50.232;8.616;2023-04-10T06:11:38;11.47;;;5.20;;
72087;SDS011;59961;50.232;8.616;2023-04-10T06:14:04;11.40;;;5.25;;
72087;SDS011;59961;50.232;8.616;2023-04-10T06:16:29;11.17;;;5.23;;
72087;SDS011;59961;50.232;8.616;2023-04-10T06:18:54;11.13;;;5.00;;
72087;SDS011;59961;50.232;8.616;2023-04-10T06:21:20;12.83;;;5.30;;
72087;SDS011;59961;50.232;8.616;2023-04-10T06:23:45;11.50;;;5.50;;
72087;SDS011;59961;50.232;8.616;2023-04-10T06:26:10;11.33;;;5.93;;
72087;SDS011;59961;50.232;8.616;2023-04-10T06:28:36;11.77;;;5.43;;
72087;SDS011;59961;50.232;8.616;2023-04-10T06:31:01;12.50;;;5.23;;
72087;SDS011;59961;50.232;8.616;2023-04-10T06:33:29;11.45;;;5.50;;
72087;SDS011;59961;50.232;8.616;2023-04-10T06:35:54;10.77;;;5.13;;
72087;SDS011;59961;50.232;8.616;2023-04-10T06:38:21;11.05;;;5.05;;
72087;SDS011;59961;50.232;8.616;2023-04-10T06:40:46;12.15;;;5.47;;
72087;SDS011;59961;50.232;8.616;2023-04-10T06:43:11;12.68;;;5.47;;
72087;SDS011;59961;50.232;8.616;2023-04-10T06:45:37;11.45;;;5.72;;
72087;SDS011;59961;50.232;8.616;2023-04-10T06:48:03;10.77;;;5.30;;
72087;SDS011;59961;50.232;8.616;2023-04-10T06:50:28;12.17;;;5.37;;
72087;SDS011;59961;50.232;8.616;2023-04-10T06:52:53;11.57;;;5.63;;
72087;SDS011;59961;50.232;8.616;2023-04-10T06:55:20;12.15;;;6.10;;
72087;SDS011;59961;50.232;8.616;2023-04-10T06:57:45;11.00;;;5.53;;
72087;SDS011;59961;50.232;8.616;2023-04-10T07:00:10;10.48;;;5.40;;
72087;SDS011;59961;50.232;8.616;2023-04-10T07:02:36;11.40;;;5.97;;
72087;SDS011;59961;50.232;8.616;2023-04-10T07:05:01;11.10;;;5.70;;
72087;SDS011;59961;50.232;8.616;2023-04-10T07:07:26;10.63;;;5.60;;
72087;SDS011;59961;50.232;8.616;2023-04-10T07:09:52;12.38;;;6.03;;
72087;SDS011;59961;50.232;8.616;2023-04-10T07:12:17;11.87;;;6.13;;
72087;SDS011;59961;50.232;8.616;2023-04-10T07:14:43;12.30;;;5.63;;
72087;SDS011;59961;50.232;8.616;2023-04-10T07:17:08;12.30;;;5.87;;
72087;SDS011;59961;50.232;8.616;2023-04-10T07:19:33;11.60;;;6.00;;
72087;SDS011;59961;50.232;8.616;2023-04-10T07:21:58;11.63;;;6.07;;
72087;SDS011;59961;50.232;8.616;2023-04-10T07:24:24;12.33;;;5.70;;
72087;SDS011;59961;50.232;8.616;2023-04-10T07:26:49;11.00;;;5.60;;
72087;SDS011;59961;50.232;8.616;2023-04-10T07:29:14;9.97;;;5.37;;
72087;SDS011;59961;50.232;8.616;2023-04-10T07:31:40;12.35;;;5.90;;
72087;SDS011;59961;50.232;8.616;2023-04-10T07:34:05;12.47;;;6.00;;
72087;SDS011;59961;50.232;8.616;2023-04-10T07:36:31;11.67;;;6.13;;
72087;SDS011;59961;50.232;8.616;2023-04-10T07:38:56;11.85;;;5.88;;
72087;SDS011;59961;50.232;8.616;2023-04-10T07:41:21;11.30;;;5.75;;
72087;SDS011;59961;50.232;8.616;2023-04-10T07:43:48;11.13;;;6.00;;
72087;SDS011;59961;50.232;8.616;2023-04-10T07:46:13;11.53;;;5.63;;
72087;SDS011;59961;50.232;8.616;2023-04-10T07:48:38;11.87;;;5.73;;
72087;SDS011;59961;50.232;8.616;2023-04-10T07:51:03;11.50;;;6.07;;
72087;SDS011;59961;50.232;8.616;2023-04-10T07:53:28;12.13;;;6.17;;
72087;SDS011;59961;50.232;8.616;2023-04-10T07:55:54;12.27;;;6.57;;
72087;SDS011;59961;50.232;8.616;2023-04-10T07:58:20;11.57;;;6.20;;
72087;SDS011;59961;50.232;8.616;2023-04-10T08:00:45;10.93;;;6.00;;
72087;SDS011;59961;50.232;8.616;2023-04-10T08:03:10;14.90;;;7.27;;
72087;SDS011;59961;50.232;8.616;2023-04-10T08:05:35;13.47;;;6.50;;
72087;SDS011;59961;50.232;8.616;2023-04-10T08:08:00;11.63;;;6.10;;
72087;SDS011;59961;50.232;8.616;2023-04-10T08:10:26;15.23;;;6.28;;
72087;SDS011;59961;50.232;8.616;2023-04-10T08:12:51;10.83;;;5.77;;
72087;SDS011;59961;50.232;8.616;2023-04-10T08:15:16;11.60;;;5.78;;
72087;SDS011;59961;50.232;8.616;2023-04-10T08:17:41;11.70;;;5.73;;
72087;SDS011;59961;50.232;8.616;2023-04-10T08:20:08;11.35;;;5.93;;
72087;SDS011;59961;50.232;8.616;2023-04-10T08:22:33;11.50;;;5.68;;
72087;SDS011;59961;50.232;8.616;2023-04-10T08:24:58;13.43;;;6.93;;
72087;SDS011;59961;50.232;8.616;2023-04-10T08:27:23;13.60;;;6.15;;
72087;SDS011;59961;50.232;8.616;2023-04-10T08:29:49;11.30;;;6.03;;
72087;SDS011;59961;50.232;8.616;2023-04-10T08:32:14;12.83;;;6.27;;
72087;SDS011;59961;50.232;8.616;2023-04-10T08:34:39;13.43;;;6.67;;
72087;SDS011;59961;50.232;8.616;2023-04-10T08:37:05;13.40;;;6.75;;
72087;SDS011;59961;50.232;8.616;2023-04-10T08:39:30;13.83;;;6.73;;
72087;SDS011;59961;50.232;8.616;2023-04-10T08:41:55;11.70;;;6.23;;
72087;SDS011;59961;50.232;8.616;2023-04-10T08:44:20;12.63;;;6.57;;
72087;SDS011;59961;50.232;8.616;2023-04-10T08:46:45;12.83;;;6.30;;
72087;SDS011;59961;50.232;8.616;2023-04-10T08:51:56;12.25;;;5.88;;
72087;SDS011;59961;50.232;8.616;2023-04-10T08:54:25;14.10;;;7.15;;
72087;SDS011;59961;50.232;8.616;2023-04-10T08:56:52;11.18;;;5.68;;
72087;SDS011;59961;50.232;8.616;2023-04-10T08:59:17;11.83;;;6.07;;
72087;SDS011;59961;50.232;8.616;2023-04-10T09:01:42;11.77;;;6.15;;
72087;SDS011;59961;50.232;8.616;2023-04-10T09:04:10;11.67;;;6.30;;
72087;SDS011;59961;50.232;8.616;2023-04-10T09:06:35;12.80;;;6.60;;
72087;SDS011;59961;50.232;8.616;2023-04-10T09:09:00;12.75;;;6.05;;
72087;SDS011;59961;50.232;8.616;2023-04-10T09:11:54;11.57;;;6.17;;
72087;SDS011;59961;50.232;8.616;2023-04-10T09:14:20;12.65;;;5.97;;
72087;SDS011;59961;50.232;8.616;2023-04-10T09:16:45;10.80;;;5.35;;
72087;SDS011;59961;50.232;8.616;2023-04-10T09:19:11;11.97;;;4.93;;
72087;SDS011;59961;50.232;8.616;2023-04-10T09:21:36;10.57;;;5.78;;
72087;SDS011;59961;50.232;8.616;2023-04-10T09:24:01;11.02;;;5.82;;
72087;SDS011;59961;50.232;8.616;2023-04-10T09:26:27;10.50;;;5.10;;
72087;SDS011;59961;50.232;8.616;2023-04-10T09:28:59;8.32;;;4.70;;
72087;SDS011;59961;50.232;8.616;2023-04-10T09:31:27;9.40;;;5.20;;
72087;SDS011;59961;50.232;8.616;2023-04-10T09:34:05;8.75;;;4.80;;
72087;SDS011;59961;50.232;8.616;2023-04-10T09:36:31;11.77;;;5.00;;
72087;SDS011;59961;50.232;8.616;2023-04-10T09:38:56;10.32;;;5.07;;
72087;SDS011;59961;50.232;8.616;2023-04-10T09:41:21;10.77;;;5.43;;
72087;SDS011;59961;50.232;8.616;2023-04-10T09:43:46;8.80;;;4.85;;
72087;SDS011;59961;50.232;8.616;2023-04-10T09:46:11;9.53;;;4.67;;
72087;SDS011;59961;50.232;8.616;2023-04-10T09:48:53;8.80;;;4.27;;
72087;SDS011;59961;50.232;8.616;2023-04-10T09:51:29;8.35;;;4.90;;
72087;SDS011;59961;50.232;8.616;2023-04-10T09:53:54;9.07;;;4.22;;
72087;SDS011;59961;50.232;8.616;2023-04-10T09:56:20;7.73;;;3.83;;
72087;SDS011;59961;50.232;8.616;2023-04-10T09:58:46;8.85;;;4.57;;
72087;SDS011;59961;50.232;8.616;2023-04-10T10:01:11;8.30;;;3.77;;
72087;SDS011;59961;50.232;8.616;2023-04-10T10:03:37;7.03;;;3.60;;
72087;SDS011;59961;50.232;8.616;2023-04-10T10:06:02;8.50;;;3.95;;
72087;SDS011;59961;50.232;8.616;2023-04-10T10:08:28;8.30;;;4.50;;
72087;SDS011;59961;50.232;8.616;2023-04-10T10:10:57;8.50;;;3.63;;
72087;SDS011;59961;50.232;8.616;2023-04-10T10:13:27;9.68;;;4.90;;
72087;SDS011;59961;50.232;8.616;2023-04-10T10:18:43;9.25;;;4.55;;
72087;SDS011;59961;50.232;8.616;2023-04-10T10:21:09;8.07;;;4.10;;
72087;SDS011;59961;50.232;8.616;2023-04-10T10:23:36;9.82;;;4.38;;
72087;SDS011;59961;50.232;8.616;2023-04-10T10:26:03;9.93;;;4.23;;
72087;SDS011;59961;50.232;8.616;2023-04-10T10:28:29;6.93;;;3.65;;
72087;SDS011;59961;50.232;8.616;2023-04-10T10:30:55;8.57;;;4.13;;
72087;SDS011;59961;50.232;8.616;2023-04-10T10:33:20;8.77;;;4.00;;
72087;SDS011;59961;50.232;8.616;2023-04-10T10:35:46;8.40;;;3.73;;
72087;SDS011;59961;50.232;8.616;2023-04-10T10:38:11;9.10;;;4.33;;
72087;SDS011;59961;50.232;8.616;2023-04-10T10:43:26;8.77;;;4.30;;
72087;SDS011;59961;50.232;8.616;2023-04-10T10:48:24;8.10;;;4.00;;
72087;SDS011;59961;50.232;8.616;2023-04-10T10:56:31;7.30;;;4.10;;
72087;SDS011;59961;50.232;8.616;2023-04-10T11:01:12;6.07;;;3.63;;
72087;SDS011;59961;50.232;8.616;2023-04-10T11:03:37;8.52;;;4.18;;
72087;SDS011;59961;50.232;8.616;2023-04-10T11:06:03;8.77;;;4.40;;
72087;SDS011;59961;50.232;8.616;2023-04-10T11:08:46;7.47;;;3.80;;
72087;SDS011;59961;50.232;8.616;2023-04-10T11:11:16;7.35;;;3.90;;
72087;SDS011;59961;50.232;8.616;2023-04-10T11:13:42;7.40;;;3.80;;
72087;SDS011;59961;50.232;8.616;2023-04-10T11:21:24;8.00;;;3.80;;
72087;SDS011;59961;50.232;8.616;2023-04-10T11:29:01;7.30;;;3.78;;
72087;SDS011;59961;50.232;8.616;2023-04-10T11:31:26;7.50;;;3.47;;
72087;SDS011;59961;50.232;8.616;2023-04-10T11:36:20;6.90;;;3.60;;
72087;SDS011;59961;50.232;8.616;2023-04-10T11:38:58;7.20;;;3.93;;
72087;SDS011;59961;50.232;8.616;2023-04-10T11:41:27;5.85;;;3.28;;
72087;SDS011;59961;50.232;8.616;2023-04-10T11:43:54;7.32;;;3.70;;
72087;SDS011;59961;50.232;8.616;2023-04-10T11:46:19;6.50;;;3.33;;
72087;SDS011;59961;50.232;8.616;2023-04-10T11:48:44;6.30;;;3.08;;
72087;SDS011;59961;50.232;8.616;2023-04-10T11:51:10;7.67;;;3.77;;
72087;SDS011;59961;50.232;8.616;2023-04-10T11:53:36;7.20;;;3.80;;
72087;SDS011;59961;50.232;8.616;2023-04-10T11:56:01;6.73;;;3.57;;
72087;SDS011;59961;50.232;8.616;2023-04-10T11:58:27;6.57;;;3.10;;
72087;SDS011;59961;50.232;8.616;2023-04-10T12:01:00;5.85;;;3.47;;
72087;SDS011;59961;50.232;8.616;2023-04-10T12:03:30;7.82;;;3.50;;
72087;SDS011;59961;50.232;8.616;2023-04-10T12:05:55;6.97;;;3.13;;
72087;SDS011;59961;50.232;8.616;2023-04-10T12:08:20;6.10;;;3.30;;
72087;SDS011;59961;50.232;8.616;2023-04-10T12:10:55;6.40;;;3.17;;
72087;SDS011;59961;50.232;8.616;2023-04-10T12:13:23;6.03;;;3.00;;
72087;SDS011;59961;50.232;8.616;2023-04-10T12:15:49;6.90;;;3.77;;
72087;SDS011;59961;50.232;8.616;2023-04-10T12:18:14;5.63;;;3.30;;
72087;SDS011;59961;50.232;8.616;2023-04-10T12:20:39;6.43;;;3.60;;
72087;SDS011;59961;50.232;8.616;2023-04-10T12:23:04;5.63;;;3.28;;
72087;SDS011;59961;50.232;8.616;2023-04-10T12:25:30;5.80;;;3.27;;
72087;SDS011;59961;50.232;8.616;2023-04-10T12:27:55;6.33;;;3.17;;
72087;SDS011;59961;50.232;8.616;2023-04-10T12:30:20;5.17;;;2.90;;
72087;SDS011;59961;50.232;8.616;2023-04-10T12:32:52;5.03;;;2.40;;
72087;SDS011;59961;50.232;8.616;2023-04-10T12:35:17;5.80;;;2.50;;
72087;SDS011;59961;50.232;8.616;2023-04-10T12:37:49;5.50;;;2.80;;
72087;SDS011;59961;50.232;8.616;2023-04-10T12:40:14;5.88;;;2.20;;
72087;SDS011;59961;50.232;8.616;2023-04-10T12:42:40;5.30;;;3.10;;
72087;SDS011;59961;50.232;8.616;2023-04-10T12:45:08;10.48;;;3.17;;
72087;SDS011;59961;50.232;8.616;2023-04-10T12:47:46;5.32;;;2.70;;
72087;SDS011;59961;50.232;8.616;2023-04-10T12:50:12;5.43;;;3.00;;
72087;SDS011;59961;50.232;8.616;2023-04-10T12:52:39;5.10;;;2.40;;
72087;SDS011;59961;50.232;8.616;2023-04-10T12:55:15;4.65;;;2.33;;
72087;SDS011;59961;50.232;8.616;2023-04-10T12:57:40;3.70;;;2.30;;
72087;SDS011;59961;50.232;8.616;2023-04-10T13:00:06;3.75;;;1.90;;
72087;SDS011;59961;50.232;8.616;2023-04-10T13:02:34;4.93;;;2.20;;
72087;SDS011;59961;50.232;8.616;2023-04-10T13:04:59;4.88;;;2.15;;
72087;SDS011;59961;50.232;8.616;2023-04-10T13:07:25;4.30;;;2.10;;
72087;SDS011;59961;50.232;8.616;2023-04-10T13:09:50;3.65;;;1.80;;
72087;SDS011;59961;50.232;8.616;2023-04-10T13:12:16;4.03;;;1.65;;
72087;SDS011;59961;50.232;8.616;2023-04-10T13:14:41;2.97;;;1.50;;
72087;SDS011;59961;50.232;8.616;2023-04-10T13:17:06;4.17;;;2.00;;
72087;SDS011;59961;50.232;8.616;2023-04-10T13:19:31;3.47;;;2.10;;
72087;SDS011;59961;50.232;8.616;2023-04-10T13:21:57;3.33;;;1.73;;
72087;SDS011;59961;50.232;8.616;2023-04-10T13:24:25;3.85;;;2.22;;
72087;SDS011;59961;50.232;8.616;2023-04-10T13:26:50;4.10;;;1.98;;
72087;SDS011;59961;50.232;8.616;2023-04-10T13:29:15;3.50;;;1.90;;
72087;SDS011;59961;50.232;8.616;2023-04-10T13:31:40;4.97;;;2.15;;
72087;SDS011;59961;50.232;8.616;2023-04-10T13:34:05;4.30;;;2.00;;
72087;SDS011;59961;50.232;8.616;2023-04-10T13:36:30;2.87;;;1.73;;
72087;SDS011;59961;50.232;8.616;2023-04-10T13:38:56;3.87;;;1.93;;
72087;SDS011;59961;50.232;8.616;2023-04-10T13:41:21;2.83;;;1.93;;
72087;SDS011;59961;50.232;8.616;2023-04-10T13:43:47;4.32;;;1.83;;
72087;SDS011;59961;50.232;8.616;2023-04-10T13:46:12;3.17;;;1.87;;
72087;SDS011;59961;50.232;8.616;2023-04-10T13:48:37;4.37;;;2.00;;
72087;SDS011;59961;50.232;8.616;2023-04-10T13:51:05;4.25;;;2.20;;
72087;SDS011;59961;50.232;8.616;2023-04-10T13:53:30;6.93;;;2.50;;
72087;SDS011;59961;50.232;8.616;2023-04-10T13:55:55;4.07;;;2.00;;
72087;SDS011;59961;50.232;8.616;2023-04-10T13:58:21;4.47;;;2.20;;
72087;SDS011;59961;50.232;8.616;2023-04-10T14:00:46;5.03;;;2.53;;
72087;SDS011;59961;50.232;8.616;2023-04-10T14:03:11;4.88;;;2.42;;
72087;SDS011;59961;50.232;8.616;2023-04-10T14:05:37;4.27;;;2.60;;
72087;SDS011;59961;50.232;8.616;2023-04-10T14:08:03;4.55;;;2.38;;
72087;SDS011;59961;50.232;8.616;2023-04-10T14:10:28;4.43;;;2.33;;
72087;SDS011;59961;50.232;8.616;2023-04-10T14:12:54;4.87;;;2.53;;
72087;SDS011;59961;50.232;8.616;2023-04-10T14:15:19;4.65;;;1.95;;
72087;SDS011;59961;50.232;8.616;2023-04-10T14:17:45;4.83;;;2.50;;
72087;SDS011;59961;50.232;8.616;2023-04-10T14:20:10;4.60;;;2.37;;
72087;SDS011;59961;50.232;8.616;2023-04-10T14:22:35;4.70;;;2.47;;
72087;SDS011;59961;50.232;8.616;2023-04-10T14:25:01;5.43;;;2.65;;
72087;SDS011;59961;50.232;8.616;2023-04-10T14:27:26;4.60;;;2.40;;
72087;SDS011;59961;50.232;8.616;2023-04-10T14:29:51;4.20;;;2.30;;
72087;SDS011;59961;50.232;8.616;2023-04-10T14:32:16;5.50;;;2.40;;
72087;SDS011;59961;50.232;8.616;2023-04-10T14:34:42;4.63;;;2.67;;
72087;SDS011;59961;50.232;8.616;2023-04-10T14:37:07;4.25;;;2.47;;
72087;SDS011;59961;50.232;8.616;2023-04-10T14:39:32;5.47;;;2.45;;
72087;SDS011;59961;50.232;8.616;2023-04-10T14:41:58;4.37;;;2.30;;
72087;SDS011;59961;50.232;8.616;2023-04-10T14:44:23;3.40;;;1.93;;
72087;SDS011;59961;50.232;8.616;2023-04-10T14:46:48;3.73;;;2.33;;
72087;SDS011;59961;50.232;8.616;2023-04-10T14:49:13;3.30;;;1.93;;
72087;SDS011;59961;50.232;8.616;2023-04-10T14:51:41;4.60;;;2.15;;
72087;SDS011;59961;50.232;8.616;2023-04-10T14:54:07;4.80;;;1.70;;
72087;SDS011;59961;50.232;8.616;2023-04-10T14:56:33;3.10;;;1.73;;
72087;SDS011;59961;50.232;8.616;2023-04-10T14:58:58;2.70;;;1.60;;
72087;SDS011;59961;50.232;8.616;2023-04-10T15:01:23;3.47;;;1.87;;
72087;SDS011;59961;50.232;8.616;2023-04-10T15:03:48;3.40;;;2.05;;
72087;SDS011;59961;50.232;8.616;2023-04-10T15:06:13;3.00;;;1.87;;
72087;SDS011;59961;50.232;8.616;2023-04-10T15:08:39;3.17;;;1.80;;
72087;SDS011;59961;50.232;8.616;2023-04-10T15:11:04;3.00;;;1.60;;
72087;SDS011;59961;50.232;8.616;2023-04-10T15:13:29;3.10;;;1.77;;
72087;SDS011;59961;50.232;8.616;2023-04-10T15:15:55;4.77;;;1.93;;